Un Pendik — TCOD2 — position and weather

sailwx.info

Track history (hours):
 
Tides and Currents Weather Stations Pressure Air Temp Water Temp Dewpoint Dewpoint Depression Visibility Wind Speed Wind Dir Waves Ship Positions

Un Pendik

Last reported at 2014-Dec-20 21:31 UTC. Time now 2014-Dec-21 08:31 UTC.
Position N 40°31' E 027°03'.

Length 193 m; draft 6.8 m.

Type: Ship (hazmat cat A). MMSI: 271000792.

Date/timePositionNaut miles runAvg speedWind from/ knotsBaromVisibWave heightAir tempDewpointWater temp
2014-Dec-20 21:31N 40°31' E 027°03'1211.6
2014-Dec-20 20:31N 40°27' E 026°49'2613.1
2014-Dec-20 18:30N 40°09' E 026°23'45 6.0
2014-Dec-20 11:04N 39°36' E 025°44'11917.5
2014-Dec-20 04:17N 37°51' E 024°35'1317.8
2014-Dec-20 03:33N 37°39' E 024°29'1818.0
2014-Dec-20 02:33N 37°24' E 024°16'2718.3
2014-Dec-20 01:04N 37°02' E 023°55'1218.5
2014-Dec-20 00:26N 36°53' E 023°46'72716.8
2014-Dec-18 05:05N 42°33' E 009°51'2818.3
2014-Dec-18 03:33N 42°58' E 009°34'1917.4
2014-Dec-18 02:28N 43°06' E 009°10'7418.5
2014-Dec-17 22:28N 42°58' E 007°30'1718.3
2014-Dec-17 21:33N 42°56' E 007°07'1818.2
2014-Dec-17 20:33N 42°54' E 006°42'2117.5
2014-Dec-17 19:23N 42°55' E 006°14'1518.2
2014-Dec-17 18:33N 43°04' E 005°58'4 4.1
2014-Dec-17 17:33N 43°06' E 005°54'0 0.0
2014-Dec-17 16:33N 43°06' E 005°54'0 0.0
2014-Dec-17 15:33N 43°06' E 005°54'0 0.0
2014-Dec-17 14:34N 43°06' E 005°54'0 0.0
2014-Dec-17 13:33N 43°06' E 005°54'0 0.0
2014-Dec-17 12:33N 43°06' E 005°54'0 0.0
2014-Dec-17 11:33N 43°06' E 005°54'0 0.0
2014-Dec-17 10:33N 43°06' E 005°54'0 0.0
2014-Dec-17 09:33N 43°06' E 005°54'0 0.0
2014-Dec-17 08:33N 43°06' E 005°54'0 0.0
2014-Dec-17 07:33N 43°06' E 005°54'0 0.0
2014-Dec-17 06:33N 43°06' E 005°54'6 6.1
2014-Dec-17 05:33N 43°03' E 006°00'  
2014-Dec-15 01:19N 36°34' E 023°19'1519.6
2014-Dec-15 00:33N 36°47' E 023°30'2019.6
2014-Dec-14 23:32N 37°03' E 023°43'2119.7
2014-Dec-14 22:29N 37°21' E 023°57'1920.4
2014-Dec-14 21:33N 37°37' E 024°10'2019.9
2014-Dec-14 20:33N 37°51' E 024°27'2420.1
2014-Dec-14 19:20N 38°12' E 024°44'1719.9
2014-Dec-14 18:29N 38°27' E 024°54'39 0.8
2014-Dec-12 17:30N 37°51' E 024°35'1718.2
2014-Dec-12 16:33N 37°35' E 024°27'1918.9
2014-Dec-12 15:33N 37°20' E 024°12'2318.7
2014-Dec-12 14:20N 37°01' E 023°55'1418.8
2014-Dec-12 13:33N 36°50' E 023°44'  
Track history (hours):
 
Tides and Currents Weather Stations Pressure Air Temp Water Temp Dewpoint Dewpoint Depression Visibility Wind Speed Wind Dir Waves Ship Positions

Un Pendik

Last reported at 2014-Dec-20 21:31 UTC. Time now 2014-Dec-21 08:31 UTC.
Position N 40°31' E 027°03'.

Length 193 m; draft 6.8 m.

Type: Ship (hazmat cat A). MMSI: 271000792.

Date/timePositionNaut miles runAvg speedWind from/ knotsBaromVisibWave heightAir tempDewpointWater temp
2014-Dec-20 21:31N 40°31' E 027°03'1211.6
2014-Dec-20 20:31N 40°27' E 026°49'2613.1
2014-Dec-20 18:30N 40°09' E 026°23'45 6.0
2014-Dec-20 11:04N 39°36' E 025°44'11917.5
2014-Dec-20 04:17N 37°51' E 024°35'1317.8
2014-Dec-20 03:33N 37°39' E 024°29'1818.0
2014-Dec-20 02:33N 37°24' E 024°16'2718.3
2014-Dec-20 01:04N 37°02' E 023°55'1218.5
2014-Dec-20 00:26N 36°53' E 023°46'72716.8
2014-Dec-18 05:05N 42°33' E 009°51'2818.3
2014-Dec-18 03:33N 42°58' E 009°34'1917.4
2014-Dec-18 02:28N 43°06' E 009°10'7418.5
2014-Dec-17 22:28N 42°58' E 007°30'1718.3
2014-Dec-17 21:33N 42°56' E 007°07'1818.2
2014-Dec-17 20:33N 42°54' E 006°42'2117.5
2014-Dec-17 19:23N 42°55' E 006°14'1518.2
2014-Dec-17 18:33N 43°04' E 005°58'4 4.1
2014-Dec-17 17:33N 43°06' E 005°54'0 0.0
2014-Dec-17 16:33N 43°06' E 005°54'0 0.0
2014-Dec-17 15:33N 43°06' E 005°54'0 0.0
2014-Dec-17 14:34N 43°06' E 005°54'0 0.0
2014-Dec-17 13:33N 43°06' E 005°54'0 0.0
2014-Dec-17 12:33N 43°06' E 005°54'0 0.0
2014-Dec-17 11:33N 43°06' E 005°54'0 0.0
2014-Dec-17 10:33N 43°06' E 005°54'0 0.0
2014-Dec-17 09:33N 43°06' E 005°54'0 0.0
2014-Dec-17 08:33N 43°06' E 005°54'0 0.0
2014-Dec-17 07:33N 43°06' E 005°54'0 0.0
2014-Dec-17 06:33N 43°06' E 005°54'6 6.1
2014-Dec-17 05:33N 43°03' E 006°00'  
2014-Dec-15 01:19N 36°34' E 023°19'1519.6
2014-Dec-15 00:33N 36°47' E 023°30'2019.6
2014-Dec-14 23:32N 37°03' E 023°43'2119.7
2014-Dec-14 22:29N 37°21' E 023°57'1920.4
2014-Dec-14 21:33N 37°37' E 024°10'2019.9
2014-Dec-14 20:33N 37°51' E 024°27'2420.1
2014-Dec-14 19:20N 38°12' E 024°44'1719.9
2014-Dec-14 18:29N 38°27' E 024°54'39 0.8
2014-Dec-12 17:30N 37°51' E 024°35'1718.2
2014-Dec-12 16:33N 37°35' E 024°27'1918.9
2014-Dec-12 15:33N 37°20' E 024°12'2318.7
2014-Dec-12 14:20N 37°01' E 023°55'1418.8
2014-Dec-12 13:33N 36°50' E 023°44'  

Dump ship's entire track history